Data for 06/03/2006

Time Sea-Level Adjusted Pressure Absolute Pressure Temperature Relative Humidity Dew Point   
(mb) (inHg) (mb) (inHg) (C) (F) (%) (C) (F)
00:05 1016 30 845 24.95 18.7 65.7 43 5.9 42.6
00:10 1016 30 845 24.95 18.6 65.4 34 2.5 36.5
00:15 1016 30 845 24.95 19.1 66.4 42 5.9 42.6
00:20 1016 30 845 24.95 18.7 65.6 38 4.3 39.8
00:25 1016 30 845 24.95 19 66.2 31 1.8 35.3
00:30 1016 30 845 24.95 20.3 68.5 27 1 33.9
00:35 1016 30 846 24.98 20.6 69.1 27 1.3 34.4
00:40 1017 30.03 846 24.98 20.7 69.2 28 1.6 35
00:45 1017 30.03 846 24.98 20.5 68.9 30 2.5 36.5
00:50 1017 30.03 846 24.98 20.2 68.4 31 2.5 36.6
00:55 1017 30.03 846 24.98 20.1 68.2 32 3.2 37.8
01:00 1017 30.03 847 25.01 19.8 67.6 34 3.7 38.6
01:05 1018 30.06 847 25.01 19.8 67.6 37 4.7 40.4
01:10 1018 30.06 847 25.01 19.9 67.7 39 5.8 42.4
01:15 1018 30.06 847 25.01 19.6 67.3 42 6.5 43.8
01:20 1018 30.06 847 25.01 19.4 66.9 44 7 44.5
01:25 1018 30.06 847 25.01 19.1 66.4 45 7.1 44.8
01:30 1018 30.06 848 25.04 18.9 65.9 47 7.5 45.5
01:35 1019 30.09 848 25.04 18.6 65.5 50 8.1 46.6
01:40 1019 30.09 848 25.04 18.2 64.8 56 9.3 48.8
01:45 1019 30.09 848 25.04 17.5 63.6 60 9.9 49.8
01:50 1019 30.09 848 25.04 17.1 62.7 63 10.2 50.3
01:55 1019 30.09 848 25.04 16.9 62.3 63 9.9 49.8
02:00 1019 30.09 848 25.04 16.7 62.1 65 10.2 50.4
02:05 1019 30.09 848 25.04 16.5 61.8 66 10.2 50.4
02:10 1019 30.09 848 25.04 16.4 61.5 66 10.1 50.2
02:15 1019 30.09 848 25.04 16.2 61.2 66 9.8 49.7
02:20 1019 30.09 848 25.04 16.2 61.1 67 10.1 50.1
02:25 1019 30.09 848 25.04 16.1 61 67 10 50.1
02:30 1019 30.09 848 25.04 16 60.8 67 10 49.9
02:35 1019 30.09 848 25.04 16 60.8 67 10 49.9
02:40 1019 30.09 848 25.04 15.9 60.6 68 10 50
02:45 1019 30.09 848 25.04 15.8 60.4 69 10.2 50.4
02:50 1019 30.09 848 25.04 15.4 59.7 71 10.3 50.5
02:55 1019 30.09 848 25.04 15.2 59.4 72 10.2 50.4
03:00 1019 30.09 848 25.04 15.1 59.2 72 10.1 50.2
03:05 1019 30.09 848 25.04 15.1 59.1 72 10.1 50.2
03:10 1019 30.09 848 25.04 15 59 73 10.2 50.4
03:15 1019 30.09 848 25.04 15 59 72 10.1 50.2
03:20 1019 30.09 848 25.04 15.1 59.2 72 10.1 50.2
03:25 1019 30.09 848 25.04 15.1 59.2 72 10.2 50.3
03:30 1019 30.09 848 25.04 15.1 59.1 72 10.1 50.3
03:35 1019 30.09 848 25.04 15.1 59.1 72 10.2 50.3
03:40 1019 30.09 848 25.04 15 59 73 10.2 50.4
03:45 1019 30.09 848 25.04 14.7 58.5 74 10.1 50.2
03:50 1019 30.09 848 25.04 14.6 58.2 74 10 50
03:55 1019 30.09 848 25.04 14.4 58 75 10.1 50.2
04:00 1019 30.09 848 25.04 14.4 58 74 10 50
04:05 1019 30.09 849 25.07 14.6 58.3 74 10.1 50.3
04:10 1019 30.09 849 25.07 14.5 58.2 76 10.3 50.6
04:15 1019 30.09 849 25.07 14.4 57.9 77 10.5 50.9
04:20 1019 30.09 849 25.07 14.4 57.9 77 10.5 50.9
04:25 1020 30.12 849 25.07 14.3 57.8 78 10.6 51.1
04:30 1020 30.12 849 25.07 14.2 57.5 79 10.6 51.2
04:35 1020 30.12 849 25.07 14 57.1 79 10.4 50.7
04:40 1020 30.12 849 25.07 13.8 56.8 79 10.3 50.5
04:45 1020 30.12 849 25.07 13.9 57 78 10.1 50.2
04:50 1020 30.12 849 25.07 13.9 57 79 10.3 50.5
04:55 1020 30.12 849 25.07 13.9 57.1 78 10.2 50.4
05:00 1020 30.12 849 25.07 13.9 57 75 9.6 49.2
05:05 1020 30.12 849 25.07 13.9 56.9 75 9.6 49.3
05:10 1020 30.12 849 25.07 13.8 56.9 79 10.4 50.6
05:15 1020 30.12 849 25.07 13.9 57 77 10 49.9
05:20 1020 30.12 849 25.07 14 57.2 74 9.5 49.1
05:25 1020 30.12 849 25.07 14 57.2 77 10.1 50.2
05:30 1020 30.12 849 25.07 13.9 57.1 76 9.8 49.6
05:35 1020 30.12 849 25.07 13.9 57.1 75 9.7 49.5
05:40 1020 30.12 849 25.07 13.9 57.1 75 9.6 49.2
05:45 1020 30.12 849 25.07 13.9 57 74 9.3 48.8
05:50 1020 30.12 849 25.07 14 57.1 75 9.6 49.2
05:55 1020 30.12 849 25.07 14 57.1 77 10 50
06:00 1020 30.12 849 25.07 13.9 57 77 10 50
06:05 1020 30.12 849 25.07 13.8 56.8 76 9.6 49.3
06:10 1020 30.12 849 25.07 13.9 56.9 78 10.1 50.1
06:15 1020 30.12 849 25.07 13.8 56.8 78 10 50.1
06:20 1020 30.12 849 25.07 13.8 56.8 79 10.2 50.3
06:25 1020 30.12 849 25.07 13.8 56.9 77 9.9 49.8
06:30 1020 30.12 849 25.07 13.7 56.7 77 9.8 49.7
06:35 1020 30.12 849 25.07 13.6 56.5 83 10.7 51.3
06:40 1020 30.12 849 25.07 13.5 56.2 82 10.4 50.8
06:45 1020 30.12 850 25.1 13.3 56 84 10.7 51.3
06:50 1020 30.12 850 25.1 13.3 56 83 10.6 51
06:55 1020 30.12 850 25.1 13.4 56.2 81 10.2 50.4
07:00 1020 30.12 850 25.1 13.5 56.3 82 10.6 51
07:05 1020 30.12 850 25.1 13.6 56.4 82 10.5 50.9
07:10 1020 30.12 850 25.1 13.8 56.8 79 10.2 50.4
07:15 1021 30.15 850 25.1 14.1 57.3 76 10 49.9
07:20 1021 30.15 850 25.1 14.3 57.8 75 10 50
07:25 1021 30.15 850 25.1 14.5 58.1 74 9.9 49.8
07:30 1021 30.15 850 25.1 14.6 58.2 73 9.8 49.6
07:35 1021 30.15 850 25.1 14.9 58.9 68 9.2 48.6
07:40 1021 30.15 850 25.1 15.7 60.3 68 9.8 49.6
07:45 1021 30.15 850 25.1 16 60.9 68 10.2 50.3
07:50 1021 30.15 850 25.1 15.7 60.3 68 9.9 49.8
07:55 1021 30.15 850 25.1 15.3 59.5 70 10 49.9
08:00 1021 30.15 850 25.1 15.3 59.6 70 10 50
08:05 1021 30.15 850 25.1 15.2 59.4 71 10.1 50.2
08:10 1021 30.15 850 25.1 15.2 59.3 71 10 49.9
08:15 1021 30.15 850 25.1 15.1 59.2 71 9.9 49.9
08:20 1021 30.15 850 25.1 15.1 59.2 72 10.1 50.1
08:25 1021 30.15 850 25.1 15.1 59.2 72 10.1 50.3
08:30 1021 30.15 850 25.1 14.9 58.9 74 10.5 50.8
08:35 1021 30.15 850 25.1 14.8 58.7 76 10.7 51.3
08:40 1021 30.15 850 25.1 14.9 58.7 74 10.3 50.6
08:45 1021 30.15 850 25.1 14.8 58.7 74 10.3 50.5
08:50 1021 30.15 850 25.1 14.9 58.7 72 9.9 49.8
08:55 1021 30.15 850 25.1 15 59 73 10.2 50.4
09:00 1021 30.15 850 25.1 15.3 59.5 73 10.5 50.8
09:05 1021 30.15 850 25.1 15.3 59.5 71 10.1 50.3
09:10 1021 30.15 851 25.13 15.2 59.3 72 10.1 50.2
09:15 1021 30.15 851 25.13 15.2 59.3 72 10.2 50.3
09:20 1021 30.15 851 25.13 15.3 59.5 72 10.3 50.6
09:25 1021 30.15 851 25.13 15 58.9 72 9.9 49.9
09:30 1021 30.15 851 25.13 14.8 58.6 73 10 50
09:35 1021 30.15 851 25.13 14.8 58.6 72 9.8 49.6
09:40 1021 30.15 851 25.13 15 58.9 71 9.8 49.6
09:45 1021 30.15 851 25.13 15.8 60.4 67 9.7 49.4
09:50 1021 30.15 851 25.13 16.6 61.8 67 10.4 50.7
09:55 1021 30.15 851 25.13 16.9 62.4 61 9.5 49.1
10:00 1021 30.15 851 25.13 17.3 63.2 62 10.1 50.2
10:05 1021 30.15 851 25.13 17.4 63.3 61 9.9 49.7
10:10 1021 30.15 851 25.13 18.2 64.7 56 9.3 48.8
10:15 1021 30.15 851 25.13 18.8 65.8 51 8.5 47.3
10:20 1021 30.15 851 25.13 19.1 66.4 52 9.1 48.4
10:25 1021 30.15 851 25.13 19.1 66.4 52 9.1 48.3
10:30 1021 30.15 851 25.13 19.2 66.5 51 8.8 47.9
10:35 1021 30.15 851 25.13 19.4 66.9 51 9 48.2
10:40 1021 30.15 851 25.13 20.1 68.1 49 9.1 48.4
10:45 1021 30.15 850 25.1 20.1 68.1 49 9.3 48.8
10:50 1021 30.15 850 25.1 19.5 67.2 50 9 48.1
10:55 1021 30.15 850 25.1 19.4 67 52 9.4 48.9
11:00 1021 30.15 850 25.1 18.8 65.9 53 9.1 48.3
11:05 1021 30.15 850 25.1 18.8 65.9 52 8.8 47.8
11:10 1021 30.15 850 25.1 19.2 66.6 52 9.3 48.7
11:15 1021 30.15 850 25.1 18.7 65.6 51 8.6 47.4
11:20 1021 30.15 850 25.1 19.6 67.3 48 8.6 47.4
11:25 1021 30.15 850 25.1 20.5 68.9 50 9.7 49.5
11:30 1021 30.15 850 25.1 19.9 67.8 52 9.8 49.6
11:35 1021 30.15 850 25.1 19.4 67 50 9 48.2
11:40 1021 30.15 850 25.1 19.7 67.4 52 9.8 49.6
11:45 1021 30.15 850 25.1 18.8 65.8 54 9.3 48.8
11:50 1021 30.15 850 25.1 19.7 67.4 50 9.2 48.6
11:55 1021 30.15 850 25.1 19.8 67.6 49 9 48.2
12:00 1021 30.15 850 25.1 19.7 67.5 52 9.7 49.4
12:05 1021 30.15 850 25.1 19.9 67.8 48 8.6 47.4
12:10 1021 30.15 850 25.1 20.1 68.1 48 8.8 47.9
12:15 1020 30.12 850 25.1 20.3 68.6 45 8.3 46.9
12:20 1020 30.12 850 25.1 20.9 69.7 44 8.5 47.4
12:25 1020 30.12 850 25.1 21.1 69.9 45 8.8 47.8
12:30 1020 30.12 849 25.07 21.5 70.7 43 8.5 47.3
12:35 1020 30.12 849 25.07 21.5 70.8 42 8.3 47
12:40 1020 30.12 849 25.07 20.8 69.5 44 8.3 47
12:45 1020 30.12 849 25.07 21 69.7 42 7.7 45.9
12:50 1020 30.12 849 25.07 21.2 70.2 42 8 46.4
12:55 1020 30.12 849 25.07 21 69.7 43 8.1 46.5
13:00 1020 30.12 849 25.07 21.3 70.3 42 8.2 46.8
13:05 1020 30.12 849 25.07 21.5 70.7 42 8.3 46.9
13:10 1020 30.12 849 25.07 21.4 70.5 40 7.4 45.4
13:15 1020 30.12 849 25.07 21.8 71.3 40 7.8 46
13:20 1020 30.12 849 25.07 21.3 70.3 44 8.5 47.4
13:25 1019 30.09 849 25.07 20.9 69.6 41 7.3 45.1
13:30 1019 30.09 849 25.07 21 69.7 41 7.5 45.5
13:35 1019 30.09 849 25.07 21.7 71.1 40 7.8 46
13:40 1019 30.09 848 25.04 21.9 71.3 39 7.3 45.1
13:45 1019 30.09 848 25.04 21.8 71.2 41 8 46.4
13:50 1019 30.09 848 25.04 22.2 72 38 7.4 45.3
13:55 1019 30.09 849 25.07 22.3 72.1 39 7.9 46.3
14:00 1019 30.09 849 25.07 21.6 70.8 41 8 46.4
14:05 1019 30.09 848 25.04 21 69.8 40 7 44.5
14:10 1019 30.09 848 25.04 21.7 71 38 6.8 44.3
14:15 1019 30.09 848 25.04 21.4 70.5 40 7.4 45.4
14:20 1019 30.09 848 25.04 21.3 70.3 41 7.6 45.6
14:25 1019 30.09 848 25.04 21.3 70.3 42 8.1 46.6
14:30 1019 30.09 848 25.04 21.5 70.6 39 7.1 44.7
14:35 1019 30.09 848 25.04 21.9 71.4 38 7.2 45
14:40 1019 30.09 848 25.04 22.4 72.3 38 7.7 45.9
14:45 1019 30.09 848 25.04 22.3 72.1 35 6.4 43.5
14:50 1019 30.09 848 25.04 23.3 73.9 35 7.1 44.8
14:55 1019 30.09 848 25.04 22.4 72.2 37 7.2 44.9
15:00 1019 30.09 848 25.04 22 71.6 38 7.3 45.1
15:05 1019 30.09 848 25.04 22.6 72.7 37 7.3 45.2
15:10 1019 30.09 848 25.04 23 73.3 35 6.8 44.3
15:15 1019 30.09 848 25.04 23.7 74.6 34 7 44.7
15:20 1019 30.09 848 25.04 23.1 73.6 35 7.1 44.8
15:25 1019 30.09 848 25.04 23.1 73.5 35 6.8 44.3
15:30 1019 30.09 848 25.04 23.1 73.6 34 6.5 43.7
15:35 1019 30.09 848 25.04 23.4 74.1 33 6.3 43.3
15:40 1018 30.06 848 25.04 23.8 74.9 32 6.5 43.6
15:45 1019 30.09 848 25.04 23.1 73.7 32 5.9 42.7
15:50 1018 30.06 848 25.04 23.6 74.4 34 6.8 44.2
15:55 1019 30.09 848 25.04 22.9 73.3 36 7.1 44.7
16:00 1018 30.06 848 25.04 22.6 72.6 38 7.8 46
16:05 1018 30.06 848 25.04 21.5 70.7 39 7 44.6
16:10 1018 30.06 848 25.04 22.4 72.3 34 6 42.9
16:15 1018 30.06 848 25.04 22.4 72.4 35 6.4 43.5
16:20 1018 30.06 848 25.04 22.7 72.8 35 6.5 43.7
16:25 1018 30.06 848 25.04 23.1 73.6 34 6.7 44.1
16:30 1018 30.06 847 25.01 23.1 73.6 35 6.8 44.3
16:35 1018 30.06 847 25.01 22.6 72.6 36 6.9 44.5
16:40 1018 30.06 847 25.01 22.3 72.2 35 6.4 43.6
16:45 1018 30.06 847 25.01 22.7 72.9 34 6.3 43.4
16:50 1018 30.06 847 25.01 23.3 73.9 34 6.9 44.4
16:55 1018 30.06 847 25.01 23.1 73.6 34 6.5 43.7
17:00 1018 30.06 847 25.01 22.8 73 35 6.5 43.7
17:05 1018 30.06 847 25.01 23 73.4 34 6.6 43.8
17:10 1018 30.06 847 25.01 23 73.3 34 6.4 43.5
17:15 1018 30.06 847 25.01 22.3 72.1 34 6 42.9
17:20 1018 30.06 847 25.01 22.6 72.7 34 6.3 43.3
17:25 1018 30.06 847 25.01 22.7 72.9 33 5.8 42.5
17:30 1018 30.06 847 25.01 22.8 73.1 33 5.9 42.7
17:35 1018 30.06 847 25.01 23.1 73.5 31 5.5 41.8
17:40 1018 30.06 847 25.01 23 73.5 33 5.9 42.7
17:45 1018 30.06 847 25.01 23.1 73.5 32 5.7 42.3
17:50 1018 30.06 848 25.04 23.1 73.6 32 5.7 42.2
17:55 1018 30.06 848 25.04 22.8 73.1 32 5.5 41.9
18:00 1018 30.06 848 25.04 22.5 72.6 32 5.1 41.2
18:05 1018 30.06 848 25.04 22.6 72.7 33 5.7 42.3
18:10 1018 30.06 848 25.04 22.6 72.7 32 5.5 41.8
18:15 1018 30.06 847 25.01 22.5 72.4 34 6 42.9
18:20 1018 30.06 847 25.01 22.4 72.3 35 6.2 43.1
18:25 1018 30.06 848 25.04 22.1 71.7 34 5.8 42.4
18:30 1018 30.06 848 25.04 22.1 71.9 35 6.2 43.2
18:35 1018 30.06 847 25.01 22.1 71.7 34 5.9 42.6
18:40 1018 30.06 847 25.01 22 71.6 36 6.4 43.5
18:45 1018 30.06 847 25.01 21.6 70.9 36 6.1 43
18:50 1018 30.06 847 25.01 21.5 70.6 36 6.1 42.9
18:55 1018 30.06 847 25.01 21.4 70.5 36 5.8 42.4
19:00 1018 30.06 847 25.01 21.3 70.3 38 6.6 43.9
19:05 1018 30.06 847 25.01 21.2 70.1 38 6.5 43.7
19:10 1018 30.06 847 25.01 20.9 69.7 37 5.9 42.6
19:15 1018 30.06 848 25.04 20.9 69.7 37 5.7 42.3
19:20 1018 30.06 848 25.04 20.9 69.6 39 6.6 43.9
19:25 1018 30.06 848 25.04 20.8 69.5 39 6.5 43.7
19:30 1019 30.09 848 25.04 20.7 69.2 39 6.3 43.4
19:35 1019 30.09 848 25.04 20.6 69 40 6.6 43.9
19:40 1019 30.09 848 25.04 20.5 68.8 41 6.9 44.5
19:45 1019 30.09 848 25.04 20.4 68.8 42 7.3 45.2
19:50 1019 30.09 848 25.04 20.2 68.4 43 7.3 45.1
19:55 1019 30.09 848 25.04 20.1 68.2 43 7.4 45.4
20:00 1019 30.09 848 25.04 20 68 44 7.4 45.3
20:05 1019 30.09 848 25.04 20 68 45 7.7 45.9
20:10 1019 30.09 848 25.04 19.9 67.9 45 7.9 46.3
20:15 1019 30.09 848 25.04 19.7 67.5 46 7.8 46
20:20 1019 30.09 848 25.04 19.5 67.2 47 8 46.4
20:25 1019 30.09 848 25.04 19.4 66.9 46 7.7 45.9
20:30 1019 30.09 848 25.04 19.3 66.7 47 7.9 46.3
20:35 1019 30.09 848 25.04 18.9 66.1 49 8 46.4
20:40 1019 30.09 848 25.04 18.8 65.9 48 7.6 45.8
20:45 1019 30.09 848 25.04 18.8 65.9 48 7.7 45.8
20:50 1019 30.09 848 25.04 18.8 65.8 48 7.6 45.6
20:55 1019 30.09 848 25.04 18.6 65.6 52 8.7 47.6
21:00 1019 30.09 848 25.04 17.9 64.1 57 9.4 49
21:05 1019 30.09 848 25.04 17.6 63.7 55 8.5 47.3
21:10 1019 30.09 848 25.04 17.7 63.8 56 8.9 48
21:15 1019 30.09 848 25.04 17.5 63.6 58 9.2 48.6
21:20 1019 30.09 848 25.04 17.5 63.4 59 9.5 49.1
21:25 1019 30.09 848 25.04 17.1 62.7 61 9.6 49.3
21:30 1019 30.09 848 25.04 16.8 62.3 62 9.6 49.2
21:35 1019 30.09 848 25.04 16.7 62 63 9.8 49.6
21:40 1019 30.09 848 25.04 16.5 61.6 64 9.8 49.6
21:45 1019 30.09 848 25.04 16.4 61.4 66 10 50
21:50 1019 30.09 848 25.04 16.3 61.4 66 10 50
21:55 1019 30.09 848 25.04 16.3 61.3 66 10 49.9
22:00 1019 30.09 848 25.04 16.4 61.6 65 9.9 49.8
22:05 1019 30.09 848 25.04 16.4 61.6 65 10 49.9
22:10 1019 30.09 848 25.04 16.5 61.7 64 9.6 49.4
22:15 1019 30.09 848 25.04 16.4 61.5 64 9.7 49.4
22:20 1019 30.09 849 25.07 16.2 61.2 65 9.8 49.7
22:25 1019 30.09 848 25.04 15.7 60.3 67 9.8 49.6
22:30 1019 30.09 848 25.04 15.5 59.8 68 9.6 49.3
22:35 1019 30.09 848 25.04 15.4 59.7 69 9.8 49.6
22:40 1019 30.09 848 25.04 15.3 59.5 67 9.3 48.7
22:45 1019 30.09 848 25.04 15.2 59.4 68 9.5 49.1
22:50 1019 30.09 848 25.04 15.2 59.3 71 10 50.1
22:55 1019 30.09 848 25.04 15.3 59.6 69 9.7 49.5
23:00 1019 30.09 848 25.04 15.2 59.3 68 9.3 48.8
23:05 1019 30.09 848 25.04 15 59.1 69 9.5 49.1
23:10 1019 30.09 848 25.04 14.7 58.4 68 8.9 48
23:15 1019 30.09 848 25.04 14.7 58.5 68 8.9 48.1
23:20 1019 30.09 848 25.04 14.9 58.9 67 8.9 48
23:25 1019 30.09 848 25.04 15.1 59.2 67 9 48.2
23:30 1019 30.09 848 25.04 15.1 59.2 69 9.5 49.1
23:35 1019 30.09 848 25.04 15 59 70 9.7 49.4
23:40 1019 30.09 848 25.04 14.9 58.9 71 9.7 49.4
23:45 1019 30.09 848 25.04 14.7 58.4 71 9.5 49.2
23:50 1019 30.09 848 25.04 14.6 58.3 70 9.3 48.7
23:55 1019 30.09 849 25.07 14.8 58.7 70 9.5 49
24:00 1019 30.09 849 25.07 15 59 67 9 48.3